createdAt,value
2017-10-04T07:00:15.031Z,0
2017-10-04T07:01:16.410Z,5
2017-10-04T07:02:38.858Z,11
2017-10-04T07:03:40.261Z,11
2017-10-04T07:04:41.651Z,11
2017-10-04T07:05:43.057Z,11
2017-10-04T07:06:44.452Z,11
2017-10-04T07:07:45.821Z,11
2017-10-04T07:08:47.222Z,11
2017-10-04T07:09:48.738Z,11
2017-10-04T07:10:50.190Z,11
2017-10-04T07:11:51.598Z,11
2017-10-04T07:12:52.997Z,16
2017-10-04T07:13:54.473Z,16
2017-10-04T07:14:55.860Z,11
2017-10-04T07:15:57.271Z,16
2017-10-04T07:16:58.662Z,11
2017-10-04T07:18:00.064Z,11
2017-10-04T07:19:01.458Z,11
2017-10-04T07:20:02.876Z,11
2017-10-04T07:21:04.397Z,16
2017-10-04T07:22:05.795Z,16
2017-10-04T07:23:07.206Z,16
2017-10-04T07:24:08.775Z,16
2017-10-04T07:25:10.160Z,16
2017-10-04T07:26:11.541Z,16
2017-10-04T07:27:12.948Z,16
2017-10-04T07:28:14.840Z,16
2017-10-04T07:29:16.394Z,16
2017-10-04T07:30:18.894Z,16
2017-10-04T07:31:20.439Z,16
2017-10-04T07:32:21.850Z,16
2017-10-04T07:34:03.088Z,16
2017-10-04T07:35:04.505Z,16
2017-10-04T07:36:05.908Z,16
2017-10-04T07:37:07.359Z,16
2017-10-04T07:38:08.774Z,16
2017-10-04T07:39:10.173Z,16
2017-10-04T07:40:11.573Z,16
2017-10-04T07:41:12.957Z,16
2017-10-04T07:42:14.637Z,16
2017-10-04T07:43:16.034Z,16
2017-10-04T07:44:17.429Z,16
2017-10-04T07:45:18.810Z,16
2017-10-04T07:46:20.320Z,16
2017-10-04T07:47:21.717Z,16
2017-10-04T07:48:23.150Z,16
2017-10-04T07:49:24.556Z,22
2017-10-04T07:50:25.968Z,22
2017-10-04T07:51:27.373Z,22
2017-10-04T07:52:28.771Z,22
2017-10-04T07:53:30.165Z,22
2017-10-04T07:54:31.552Z,22
2017-10-04T07:55:32.975Z,22
2017-10-04T07:56:34.381Z,22
2017-10-04T07:57:35.777Z,22
2017-10-04T07:58:37.165Z,22
2017-10-04T07:59:38.578Z,22
2017-10-04T08:00:40.008Z,22
2017-10-04T08:01:41.540Z,16
2017-10-04T08:02:43.039Z,16
2017-10-04T08:03:44.415Z,16
2017-10-04T08:05:25.747Z,16
2017-10-04T08:06:27.129Z,16
2017-10-04T08:07:28.521Z,16
2017-10-04T08:08:29.913Z,16
2017-10-04T08:09:31.299Z,16
2017-10-04T08:10:32.752Z,16
2017-10-04T08:11:34.129Z,16
2017-10-04T08:12:35.528Z,16
2017-10-04T08:13:36.909Z,16
2017-10-04T08:14:38.313Z,16
2017-10-04T08:15:39.702Z,16
2017-10-04T08:16:41.104Z,16
2017-10-04T08:17:42.500Z,16
2017-10-04T08:18:43.894Z,16
2017-10-04T08:19:45.325Z,16
2017-10-04T08:20:46.737Z,16
2017-10-04T08:21:48.116Z,16
2017-10-04T08:22:49.519Z,16
2017-10-04T08:23:51.025Z,16
2017-10-04T08:24:52.425Z,16
2017-10-04T08:25:53.821Z,16
2017-10-04T08:26:55.220Z,16
2017-10-04T08:27:56.630Z,16
2017-10-04T08:28:58.022Z,16
2017-10-04T08:29:59.456Z,16
2017-10-04T08:31:00.886Z,16
2017-10-04T08:32:02.273Z,16
2017-10-04T08:33:03.686Z,16
2017-10-04T08:34:05.095Z,16
2017-10-04T08:35:06.601Z,22
2017-10-04T08:36:47.846Z,16
2017-10-04T08:37:49.250Z,16
2017-10-04T08:38:50.658Z,16
2017-10-04T08:39:52.066Z,16
2017-10-04T08:40:53.526Z,22
2017-10-04T08:41:54.913Z,22
2017-10-04T08:42:56.397Z,22
2017-10-04T08:43:57.786Z,22
2017-10-04T08:44:59.177Z,22
2017-10-04T08:46:00.607Z,22
2017-10-04T08:47:02.031Z,22
2017-10-04T08:48:03.423Z,22
2017-10-04T08:49:04.891Z,22
2017-10-04T08:50:06.318Z,22
2017-10-04T08:51:07.730Z,22
2017-10-04T08:52:09.132Z,22
2017-10-04T08:53:10.543Z,22
2017-10-04T08:54:12.060Z,22
2017-10-04T08:55:13.471Z,22
2017-10-04T08:56:14.891Z,22
2017-10-04T08:57:16.321Z,22
2017-10-04T08:58:17.718Z,22
2017-10-04T08:59:19.144Z,22
2017-10-04T09:00:20.699Z,22
2017-10-04T09:01:22.144Z,16
2017-10-04T09:02:23.535Z,22
2017-10-04T09:03:24.941Z,22
2017-10-04T09:04:26.334Z,22
2017-10-04T09:05:27.858Z,22
2017-10-04T09:06:29.253Z,22
2017-10-04T09:08:10.635Z,22
2017-10-04T09:09:12.179Z,22
2017-10-04T09:10:13.779Z,22
2017-10-04T09:11:15.194Z,22
2017-10-04T09:12:17.516Z,22
2017-10-04T09:13:18.993Z,22
2017-10-04T09:14:20.459Z,22
2017-10-04T09:15:21.878Z,22
2017-10-04T09:16:23.296Z,22
2017-10-04T09:17:24.811Z,28
2017-10-04T09:18:26.221Z,28
2017-10-04T09:19:27.642Z,28
2017-10-04T09:20:29.041Z,28
2017-10-04T09:21:30.666Z,28
2017-10-04T09:22:32.127Z,28
2017-10-04T09:23:33.526Z,22
2017-10-04T09:24:34.947Z,22
2017-10-04T09:25:36.336Z,28
2017-10-04T09:26:37.738Z,28
2017-10-04T09:27:39.960Z,28
2017-10-04T09:28:41.515Z,33
2017-10-04T09:29:42.924Z,33
2017-10-04T09:30:44.324Z,39
2017-10-04T09:31:45.732Z,39
2017-10-04T09:32:47.645Z,45
2017-10-04T09:33:49.058Z,45
2017-10-04T09:34:50.447Z,45
2017-10-04T09:35:51.874Z,45
2017-10-04T09:36:53.267Z,45
2017-10-04T09:37:54.679Z,45
2017-10-04T09:39:36.152Z,45
2017-10-04T09:40:37.561Z,39
2017-10-04T09:41:38.974Z,39
2017-10-04T09:42:40.374Z,39
2017-10-04T09:43:42.114Z,39
2017-10-04T09:44:44.132Z,45
2017-10-04T09:45:44.882Z,45
2017-10-04T09:46:46.293Z,45
2017-10-04T09:47:47.718Z,45
2017-10-04T09:48:49.129Z,45
2017-10-04T09:49:50.673Z,45
2017-10-04T09:50:52.113Z,50
2017-10-04T09:51:53.504Z,45
2017-10-04T09:52:54.899Z,45
2017-10-04T09:53:56.301Z,61
2017-10-04T09:54:57.715Z,56
2017-10-04T09:56:00.030Z,61
2017-10-04T09:57:01.462Z,61
2017-10-04T09:58:02.918Z,73
2017-10-04T09:59:04.314Z,78
2017-10-04T10:00:05.721Z,84
2017-10-04T10:01:07.158Z,90
2017-10-04T10:02:08.621Z,106
2017-10-04T10:03:10.133Z,129
2017-10-04T10:04:11.522Z,168
2017-10-04T10:05:12.926Z,157
2017-10-04T10:06:14.317Z,163
2017-10-04T10:07:15.732Z,174
2017-10-04T10:08:17.128Z,163
2017-10-04T10:09:18.537Z,135
2017-10-04T10:10:59.803Z,191
2017-10-04T10:12:01.212Z,196
2017-10-04T10:13:02.695Z,225
2017-10-04T10:14:04.088Z,270
2017-10-04T10:15:05.491Z,253
2017-10-04T10:17:20.135Z,270
2017-10-04T10:18:21.700Z,309
2017-10-04T10:19:23.092Z,258
2017-10-04T10:20:24.510Z,298
2017-10-04T10:21:25.913Z,275
2017-10-04T10:22:27.339Z,236
2017-10-04T10:23:28.781Z,286
2017-10-04T10:24:30.202Z,292
2017-10-04T10:25:31.681Z,270
2017-10-04T10:26:33.094Z,270
2017-10-04T10:27:34.516Z,241
2017-10-04T10:28:36.034Z,275
2017-10-04T10:29:37.595Z,275
2017-10-04T10:30:39.096Z,236
2017-10-04T10:31:41.299Z,264
2017-10-04T10:32:42.693Z,275
2017-10-04T10:33:44.641Z,281
2017-10-04T10:34:46.085Z,270
2017-10-04T10:35:47.524Z,253
2017-10-04T10:36:48.967Z,236
2017-10-04T10:38:30.296Z,219
2017-10-04T10:39:31.708Z,213
2017-10-04T10:40:33.117Z,236
2017-10-04T10:41:34.575Z,236
2017-10-04T10:42:35.976Z,253
2017-10-04T10:43:37.388Z,253
2017-10-04T10:44:38.809Z,253
2017-10-04T10:45:40.233Z,230
2017-10-04T10:46:41.644Z,230
2017-10-04T10:47:43.103Z,258
2017-10-04T10:48:44.507Z,253
2017-10-04T10:49:45.918Z,253
2017-10-04T10:50:47.318Z,230
2017-10-04T10:51:48.732Z,253
2017-10-04T10:52:50.239Z,247
2017-10-04T10:53:51.645Z,236
2017-10-04T10:54:53.060Z,236
2017-10-04T10:55:54.498Z,241
2017-10-04T10:56:55.896Z,247
2017-10-04T10:57:57.322Z,253
2017-10-04T10:58:58.735Z,253
2017-10-04T11:00:00.148Z,253
2017-10-04T11:01:01.596Z,225
2017-10-04T11:02:03.012Z,213
2017-10-04T11:03:04.986Z,202
2017-10-04T11:04:06.539Z,196
2017-10-04T11:05:07.984Z,140
2017-10-04T11:06:09.385Z,135
2017-10-04T11:07:10.816Z,168
2017-10-04T11:08:12.219Z,236
2017-10-04T11:09:53.610Z,174
2017-10-04T11:10:55.037Z,236
2017-10-04T11:11:56.718Z,270
2017-10-04T11:12:58.119Z,258
2017-10-04T11:13:59.767Z,270
2017-10-04T11:15:04.217Z,292
2017-10-04T11:16:05.632Z,286
2017-10-04T11:17:07.127Z,326
2017-10-04T11:18:08.614Z,208
2017-10-04T11:19:10.068Z,196
2017-10-04T11:20:11.501Z,180
2017-10-04T11:21:13.074Z,174
2017-10-04T11:22:14.486Z,146
2017-10-04T11:23:15.917Z,157
2017-10-04T11:24:18.031Z,185
2017-10-04T11:25:19.440Z,129
2017-10-04T11:26:23.372Z,78
2017-10-04T11:27:25.772Z,112
2017-10-04T11:28:27.172Z,129
2017-10-04T11:29:28.600Z,157
2017-10-04T11:30:30.041Z,168
2017-10-04T11:31:31.475Z,112
2017-10-04T11:32:33.523Z,90
2017-10-04T11:33:34.955Z,84
2017-10-04T11:34:36.382Z,78
2017-10-04T11:35:37.884Z,112
2017-10-04T11:36:40.007Z,101
2017-10-04T11:37:41.447Z,90
2017-10-04T11:38:42.859Z,90
2017-10-04T11:39:44.252Z,129
2017-10-04T11:41:27.153Z,112
2017-10-04T11:42:29.052Z,129
2017-10-04T11:43:30.467Z,168
2017-10-04T11:44:36.751Z,146
2017-10-04T11:45:40.365Z,123
2017-10-04T11:46:41.770Z,146
2017-10-04T11:47:44.396Z,112
2017-10-04T11:48:46.372Z,106
2017-10-04T11:49:48.514Z,95
2017-10-04T11:50:49.925Z,129
2017-10-04T11:51:51.341Z,106
2017-10-04T11:52:52.747Z,90
2017-10-04T11:53:54.171Z,95
2017-10-04T11:54:55.578Z,106
2017-10-04T11:55:57.028Z,140
2017-10-04T11:56:58.464Z,135
2017-10-04T11:57:59.925Z,135
2017-10-04T11:59:01.388Z,123
2017-10-04T12:00:02.791Z,118
2017-10-04T12:01:04.190Z,106
2017-10-04T12:02:05.582Z,112
2017-10-04T12:03:07.006Z,95
2017-10-04T12:04:08.521Z,90
2017-10-04T12:05:09.966Z,101
2017-10-04T12:06:11.441Z,101
2017-10-04T12:07:13.777Z,118
2017-10-04T12:08:15.693Z,101
2017-10-04T12:09:17.373Z,84
2017-10-04T12:10:18.982Z,73
2017-10-04T12:11:21.200Z,61
2017-10-04T12:13:06.032Z,50
2017-10-04T12:14:08.248Z,45
2017-10-04T12:15:30.692Z,45
2017-10-04T12:16:32.672Z,45
2017-10-04T12:17:34.082Z,56
2017-10-04T12:18:35.583Z,61
2017-10-04T12:19:36.995Z,67
2017-10-04T12:20:38.416Z,78
2017-10-04T12:21:40.043Z,73
2017-10-04T12:22:41.533Z,61
2017-10-04T12:23:43.150Z,56
2017-10-04T12:24:44.606Z,61
2017-10-04T12:25:46.166Z,56
2017-10-04T12:26:47.830Z,56
2017-10-04T12:27:49.287Z,56
2017-10-04T12:28:50.769Z,56
2017-10-04T12:29:52.228Z,56
2017-10-04T12:30:53.638Z,50
2017-10-04T12:31:55.061Z,50
2017-10-04T12:32:56.498Z,50
2017-10-04T12:33:57.944Z,45
2017-10-04T12:34:59.385Z,45
2017-10-04T12:36:00.813Z,45
2017-10-04T12:37:02.321Z,50
2017-10-04T12:38:03.930Z,61
2017-10-04T12:39:05.473Z,61
2017-10-04T12:40:07.275Z,61
2017-10-04T12:41:09.110Z,67
2017-10-04T12:42:10.528Z,61
2017-10-04T12:43:12.175Z,61
2017-10-04T12:44:13.703Z,56
2017-10-04T12:45:15.163Z,61
2017-10-04T12:46:56.656Z,73
2017-10-04T12:47:58.089Z,73
2017-10-04T12:48:59.631Z,61
2017-10-04T12:50:01.063Z,61
2017-10-04T12:51:02.941Z,61
2017-10-04T12:52:04.367Z,56
2017-10-04T12:53:06.004Z,84
2017-10-04T12:54:07.476Z,73
2017-10-04T12:55:08.983Z,61
2017-10-04T12:56:10.372Z,84
2017-10-04T12:57:11.839Z,78
2017-10-04T12:58:13.282Z,67
2017-10-04T12:59:14.684Z,56
2017-10-04T13:00:16.133Z,73
2017-10-04T13:01:17.538Z,73
2017-10-04T13:02:19.705Z,61
2017-10-04T13:03:21.165Z,73
2017-10-04T13:04:22.597Z,67
2017-10-04T13:05:24.026Z,84
2017-10-04T13:07:05.901Z,90
2017-10-04T13:08:07.439Z,84
2017-10-04T13:09:08.910Z,90
2017-10-04T13:10:10.393Z,67
2017-10-04T13:11:11.790Z,73
2017-10-04T13:12:13.206Z,73
2017-10-04T13:13:14.706Z,61
2017-10-04T13:14:16.309Z,56
2017-10-04T13:15:17.754Z,50
2017-10-04T13:16:19.293Z,61
2017-10-04T13:17:20.830Z,61
2017-10-04T13:18:22.231Z,78
2017-10-04T13:19:23.705Z,67
2017-10-04T13:20:25.124Z,61
2017-10-04T13:21:26.561Z,56
2017-10-04T13:22:28.020Z,50
2017-10-04T13:23:29.653Z,45
2017-10-04T13:24:31.297Z,45
2017-10-04T13:25:32.769Z,45
2017-10-04T13:26:34.267Z,56
2017-10-04T13:27:35.752Z,61
2017-10-04T13:28:37.348Z,61
2017-10-04T13:29:38.748Z,61
2017-10-04T13:30:40.134Z,61
2017-10-04T13:31:41.530Z,61
2017-10-04T13:32:42.942Z,73
2017-10-04T13:33:44.446Z,61
2017-10-04T13:34:46.139Z,67
2017-10-04T13:35:47.648Z,61
2017-10-04T13:36:51.528Z,45
2017-10-04T13:38:34.565Z,56
2017-10-04T13:39:35.020Z,50
2017-10-04T13:40:56.839Z,39
2017-10-04T13:41:58.336Z,39
2017-10-04T13:42:59.755Z,45
2017-10-04T13:44:01.271Z,45
2017-10-04T13:45:02.688Z,45
2017-10-04T13:46:04.160Z,45
2017-10-04T13:47:05.564Z,45
2017-10-04T13:48:06.980Z,45
2017-10-04T13:49:08.472Z,50
2017-10-04T13:50:09.943Z,50
2017-10-04T13:51:11.441Z,50
2017-10-04T13:52:12.889Z,45
2017-10-04T13:53:14.401Z,50
2017-10-04T13:54:16.080Z,45
2017-10-04T13:55:17.701Z,45
2017-10-04T13:56:19.407Z,45
2017-10-04T13:57:20.835Z,45
2017-10-04T13:58:22.240Z,39
2017-10-04T13:59:23.683Z,45
2017-10-04T14:00:25.108Z,45
2017-10-04T14:01:26.570Z,45
2017-10-04T14:02:28.159Z,45
2017-10-04T14:03:29.585Z,39
2017-10-04T14:04:31.191Z,39
2017-10-04T14:05:32.635Z,39
2017-10-04T14:06:34.157Z,39
2017-10-04T14:07:35.764Z,33
2017-10-04T14:08:37.250Z,33
2017-10-04T14:09:38.656Z,33
2017-10-04T14:10:40.058Z,33
2017-10-04T14:12:21.656Z,39
2017-10-04T14:13:23.131Z,50
2017-10-04T14:14:24.618Z,50
2017-10-04T14:15:26.147Z,39
2017-10-04T14:16:27.701Z,39
2017-10-04T14:17:29.205Z,39
2017-10-04T14:18:31.141Z,33
2017-10-04T14:19:32.728Z,39
2017-10-04T14:20:34.147Z,39
2017-10-04T14:21:35.563Z,33
2017-10-04T14:22:36.955Z,28
2017-10-04T14:23:38.462Z,28
2017-10-04T14:24:39.932Z,33
2017-10-04T14:25:41.338Z,33
2017-10-04T14:26:42.805Z,33
2017-10-04T14:27:44.230Z,39
2017-10-04T14:28:45.674Z,39
2017-10-04T14:29:47.079Z,39
2017-10-04T14:30:48.487Z,33
2017-10-04T14:31:49.944Z,28
2017-10-04T14:32:51.360Z,33
2017-10-04T14:33:52.867Z,39
2017-10-04T14:34:54.320Z,39
2017-10-04T14:35:56.022Z,33
2017-10-04T14:36:57.547Z,33
2017-10-04T14:37:59.551Z,28
2017-10-04T14:39:00.302Z,28
2017-10-04T14:40:01.732Z,28
2017-10-04T14:41:03.125Z,28
2017-10-04T14:42:04.575Z,33
2017-10-04T14:43:59.299Z,39
2017-10-04T14:45:01.606Z,39
2017-10-04T14:46:04.204Z,39
2017-10-04T14:47:07.951Z,39
2017-10-04T14:48:11.126Z,39
2017-10-04T14:49:14.572Z,39
2017-10-04T14:51:38.129Z,45
2017-10-04T14:52:41.192Z,56
2017-10-04T14:53:43.734Z,50
2017-10-04T14:54:45.716Z,50
2017-10-04T14:55:47.859Z,56
2017-10-04T14:56:53.427Z,84
2017-10-04T14:58:01.795Z,84
2017-10-04T14:59:52.806Z,95
2017-10-04T15:00:57.795Z,101
2017-10-04T15:02:10.216Z,73
2017-10-04T15:03:14.408Z,61
2017-10-04T15:04:19.574Z,50
2017-10-04T15:05:22.696Z,73
2017-10-04T15:06:27.593Z,56
2017-10-04T15:07:40.698Z,50
2017-10-04T15:08:55.180Z,50
2017-10-04T15:10:01.834Z,56
2017-10-04T15:11:08.681Z,45
2017-10-04T15:12:14.808Z,39
2017-10-04T15:13:18.174Z,39
2017-10-04T15:14:59.450Z,33
2017-10-04T15:16:40.378Z,28
2017-10-04T15:17:41.790Z,22
2017-10-04T15:18:43.186Z,22
2017-10-04T15:19:44.567Z,22
2017-10-04T15:20:45.962Z,22
2017-10-04T15:21:47.354Z,22
2017-10-04T15:22:48.759Z,22
2017-10-04T15:23:50.150Z,22
2017-10-04T15:25:26.657Z,22
2017-10-04T15:26:28.100Z,16
2017-10-04T15:27:29.493Z,16
2017-10-04T15:28:30.887Z,16
2017-10-04T15:29:32.290Z,16
2017-10-04T15:30:33.685Z,16
2017-10-04T15:31:35.109Z,16
2017-10-04T15:32:36.591Z,16
2017-10-04T15:33:38.051Z,16
2017-10-04T15:34:39.446Z,16
2017-10-04T15:35:40.857Z,16
2017-10-04T15:36:42.333Z,16
2017-10-04T15:37:43.839Z,16
2017-10-04T15:38:45.252Z,11
2017-10-04T15:39:46.634Z,11
2017-10-04T15:40:48.044Z,11
2017-10-04T15:41:49.434Z,11
2017-10-04T15:42:50.828Z,11
2017-10-04T15:43:52.218Z,11
2017-10-04T15:44:53.720Z,11
2017-10-04T15:45:55.123Z,11
2017-10-04T15:47:37.903Z,11
